sensor_id;sensor_type;location;lat;lon;timestamp;P1;durP1;ratioP1;P2;durP2;ratioP2
76978;SDS011;65911;47.502;19.148;2023-04-07T00:02:21;14.52;;;9.98;;
76978;SDS011;65911;47.502;19.148;2023-04-07T00:05:24;14.98;;;9.70;;
76978;SDS011;65911;47.502;19.148;2023-04-07T00:08:26;13.33;;;9.63;;
76978;SDS011;65911;47.502;19.148;2023-04-07T00:11:28;15.73;;;10.05;;
76978;SDS011;65911;47.502;19.148;2023-04-07T00:14:30;14.05;;;9.25;;
76978;SDS011;65911;47.502;19.148;2023-04-07T00:17:32;13.52;;;8.85;;
76978;SDS011;65911;47.502;19.148;2023-04-07T00:20:34;15.20;;;9.35;;
76978;SDS011;65911;47.502;19.148;2023-04-07T00:23:36;14.48;;;9.00;;
76978;SDS011;65911;47.502;19.148;2023-04-07T00:26:38;13.25;;;9.43;;
76978;SDS011;65911;47.502;19.148;2023-04-07T00:29:41;16.10;;;9.87;;
76978;SDS011;65911;47.502;19.148;2023-04-07T00:32:44;13.55;;;9.77;;
76978;SDS011;65911;47.502;19.148;2023-04-07T00:35:46;14.65;;;9.63;;
76978;SDS011;65911;47.502;19.148;2023-04-07T00:38:49;16.93;;;10.43;;
76978;SDS011;65911;47.502;19.148;2023-04-07T00:41:51;12.75;;;9.38;;
76978;SDS011;65911;47.502;19.148;2023-04-07T00:44:53;17.00;;;9.85;;
76978;SDS011;65911;47.502;19.148;2023-04-07T00:47:56;14.45;;;10.60;;
76978;SDS011;65911;47.502;19.148;2023-04-07T00:50:59;14.95;;;10.02;;
76978;SDS011;65911;47.502;19.148;2023-04-07T00:54:01;16.05;;;10.13;;
76978;SDS011;65911;47.502;19.148;2023-04-07T00:57:03;15.85;;;10.60;;
76978;SDS011;65911;47.502;19.148;2023-04-07T01:00:07;14.40;;;9.60;;
76978;SDS011;65911;47.502;19.148;2023-04-07T01:03:12;15.18;;;9.70;;
76978;SDS011;65911;47.502;19.148;2023-04-07T01:06:25;15.63;;;10.25;;
76978;SDS011;65911;47.502;19.148;2023-04-07T01:09:29;14.20;;;10.17;;
76978;SDS011;65911;47.502;19.148;2023-04-07T01:16:26;14.82;;;9.30;;
76978;SDS011;65911;47.502;19.148;2023-04-07T01:23:01;16.08;;;10.50;;
76978;SDS011;65911;47.502;19.148;2023-04-07T01:29:36;16.55;;;10.50;;
76978;SDS011;65911;47.502;19.148;2023-04-07T01:32:38;16.10;;;10.50;;
76978;SDS011;65911;47.502;19.148;2023-04-07T01:35:41;15.63;;;10.60;;
76978;SDS011;65911;47.502;19.148;2023-04-07T01:38:45;13.80;;;10.10;;
76978;SDS011;65911;47.502;19.148;2023-04-07T01:41:47;15.20;;;10.73;;
76978;SDS011;65911;47.502;19.148;2023-04-07T01:44:50;16.33;;;10.30;;
76978;SDS011;65911;47.502;19.148;2023-04-07T01:47:53;16.67;;;10.38;;
76978;SDS011;65911;47.502;19.148;2023-04-07T01:50:56;14.75;;;9.60;;
76978;SDS011;65911;47.502;19.148;2023-04-07T01:53:59;13.43;;;9.90;;
76978;SDS011;65911;47.502;19.148;2023-04-07T01:57:02;16.48;;;10.77;;
76978;SDS011;65911;47.502;19.148;2023-04-07T02:00:05;17.77;;;11.32;;
76978;SDS011;65911;47.502;19.148;2023-04-07T02:03:22;13.70;;;10.13;;
76978;SDS011;65911;47.502;19.148;2023-04-07T02:06:53;16.33;;;10.18;;
76978;SDS011;65911;47.502;19.148;2023-04-07T02:10:14;15.65;;;10.05;;
76978;SDS011;65911;47.502;19.148;2023-04-07T02:13:19;15.67;;;10.00;;
76978;SDS011;65911;47.502;19.148;2023-04-07T02:16:23;15.05;;;10.38;;
76978;SDS011;65911;47.502;19.148;2023-04-07T02:19:26;14.73;;;10.13;;
76978;SDS011;65911;47.502;19.148;2023-04-07T02:22:28;14.43;;;10.07;;
76978;SDS011;65911;47.502;19.148;2023-04-07T02:25:31;16.55;;;10.52;;
76978;SDS011;65911;47.502;19.148;2023-04-07T02:28:34;16.20;;;10.27;;
76978;SDS011;65911;47.502;19.148;2023-04-07T02:31:37;13.23;;;9.75;;
76978;SDS011;65911;47.502;19.148;2023-04-07T02:34:39;14.60;;;9.53;;
76978;SDS011;65911;47.502;19.148;2023-04-07T02:37:43;14.52;;;10.02;;
76978;SDS011;65911;47.502;19.148;2023-04-07T02:40:46;13.40;;;9.65;;
76978;SDS011;65911;47.502;19.148;2023-04-07T02:43:48;12.27;;;9.30;;
76978;SDS011;65911;47.502;19.148;2023-04-07T02:46:51;13.27;;;9.57;;
76978;SDS011;65911;47.502;19.148;2023-04-07T02:49:53;14.23;;;9.40;;
76978;SDS011;65911;47.502;19.148;2023-04-07T02:52:55;14.52;;;9.57;;
76978;SDS011;65911;47.502;19.148;2023-04-07T02:55:57;14.40;;;9.15;;
76978;SDS011;65911;47.502;19.148;2023-04-07T02:58:59;13.27;;;9.35;;
76978;SDS011;65911;47.502;19.148;2023-04-07T03:02:03;15.20;;;9.90;;
76978;SDS011;65911;47.502;19.148;2023-04-07T03:05:06;13.50;;;8.97;;
76978;SDS011;65911;47.502;19.148;2023-04-07T03:08:09;13.65;;;9.70;;
76978;SDS011;65911;47.502;19.148;2023-04-07T03:11:14;13.23;;;9.48;;
76978;SDS011;65911;47.502;19.148;2023-04-07T03:14:16;14.93;;;9.50;;
76978;SDS011;65911;47.502;19.148;2023-04-07T03:17:23;13.90;;;8.82;;
76978;SDS011;65911;47.502;19.148;2023-04-07T03:20:26;13.63;;;9.45;;
76978;SDS011;65911;47.502;19.148;2023-04-07T03:23:28;12.63;;;9.32;;
76978;SDS011;65911;47.502;19.148;2023-04-07T03:26:32;13.32;;;9.57;;
76978;SDS011;65911;47.502;19.148;2023-04-07T03:29:36;15.13;;;9.98;;
76978;SDS011;65911;47.502;19.148;2023-04-07T03:32:41;12.27;;;9.88;;
76978;SDS011;65911;47.502;19.148;2023-04-07T03:35:44;15.50;;;9.90;;
76978;SDS011;65911;47.502;19.148;2023-04-07T03:38:47;13.00;;;9.50;;
76978;SDS011;65911;47.502;19.148;2023-04-07T03:41:51;11.73;;;8.82;;
76978;SDS011;65911;47.502;19.148;2023-04-07T03:44:53;12.83;;;9.33;;
76978;SDS011;65911;47.502;19.148;2023-04-07T03:47:56;13.10;;;8.88;;
76978;SDS011;65911;47.502;19.148;2023-04-07T03:50:59;13.80;;;9.07;;
76978;SDS011;65911;47.502;19.148;2023-04-07T03:54:02;11.85;;;8.88;;
76978;SDS011;65911;47.502;19.148;2023-04-07T03:57:14;12.95;;;9.15;;
76978;SDS011;65911;47.502;19.148;2023-04-07T04:00:20;14.10;;;9.07;;
76978;SDS011;65911;47.502;19.148;2023-04-07T04:03:37;14.02;;;9.50;;
76978;SDS011;65911;47.502;19.148;2023-04-07T04:07:00;12.87;;;9.37;;
76978;SDS011;65911;47.502;19.148;2023-04-07T04:10:13;13.57;;;9.07;;
76978;SDS011;65911;47.502;19.148;2023-04-07T04:13:21;12.18;;;8.93;;
76978;SDS011;65911;47.502;19.148;2023-04-07T04:16:24;13.93;;;9.23;;
76978;SDS011;65911;47.502;19.148;2023-04-07T04:19:29;13.57;;;9.27;;
76978;SDS011;65911;47.502;19.148;2023-04-07T04:22:35;14.15;;;9.07;;
76978;SDS011;65911;47.502;19.148;2023-04-07T04:25:37;14.68;;;9.52;;
76978;SDS011;65911;47.502;19.148;2023-04-07T04:28:45;12.02;;;8.63;;
76978;SDS011;65911;47.502;19.148;2023-04-07T04:31:49;13.93;;;10.10;;
76978;SDS011;65911;47.502;19.148;2023-04-07T04:34:52;13.70;;;9.85;;
76978;SDS011;65911;47.502;19.148;2023-04-07T04:37:55;13.93;;;9.50;;
76978;SDS011;65911;47.502;19.148;2023-04-07T04:40:57;13.15;;;8.68;;
76978;SDS011;65911;47.502;19.148;2023-04-07T04:44:04;15.32;;;9.20;;
76978;SDS011;65911;47.502;19.148;2023-04-07T04:47:07;13.87;;;9.43;;
76978;SDS011;65911;47.502;19.148;2023-04-07T04:50:12;15.18;;;10.25;;
76978;SDS011;65911;47.502;19.148;2023-04-07T04:53:16;14.20;;;9.95;;
76978;SDS011;65911;47.502;19.148;2023-04-07T04:56:23;14.98;;;9.95;;
76978;SDS011;65911;47.502;19.148;2023-04-07T04:59:27;13.65;;;9.35;;
76978;SDS011;65911;47.502;19.148;2023-04-07T05:02:35;13.88;;;9.65;;
76978;SDS011;65911;47.502;19.148;2023-04-07T05:05:40;13.75;;;9.63;;
76978;SDS011;65911;47.502;19.148;2023-04-07T05:08:43;13.13;;;9.60;;
76978;SDS011;65911;47.502;19.148;2023-04-07T05:11:47;16.02;;;9.95;;
76978;SDS011;65911;47.502;19.148;2023-04-07T05:14:49;15.63;;;9.50;;
76978;SDS011;65911;47.502;19.148;2023-04-07T05:17:52;15.87;;;9.90;;
76978;SDS011;65911;47.502;19.148;2023-04-07T05:20:59;12.85;;;9.30;;
76978;SDS011;65911;47.502;19.148;2023-04-07T05:24:03;15.30;;;10.30;;
76978;SDS011;65911;47.502;19.148;2023-04-07T05:27:08;13.57;;;9.73;;
76978;SDS011;65911;47.502;19.148;2023-04-07T05:30:11;15.48;;;10.43;;
76978;SDS011;65911;47.502;19.148;2023-04-07T05:33:14;15.25;;;10.65;;
76978;SDS011;65911;47.502;19.148;2023-04-07T05:36:20;13.57;;;9.82;;
76978;SDS011;65911;47.502;19.148;2023-04-07T05:39:26;14.17;;;9.87;;
76978;SDS011;65911;47.502;19.148;2023-04-07T05:42:30;14.65;;;10.27;;
76978;SDS011;65911;47.502;19.148;2023-04-07T05:45:32;12.55;;;9.05;;
76978;SDS011;65911;47.502;19.148;2023-04-07T05:48:35;14.23;;;9.67;;
76978;SDS011;65911;47.502;19.148;2023-04-07T05:51:37;13.80;;;9.63;;
76978;SDS011;65911;47.502;19.148;2023-04-07T05:54:44;14.40;;;9.45;;
76978;SDS011;65911;47.502;19.148;2023-04-07T05:57:48;16.75;;;10.32;;
76978;SDS011;65911;47.502;19.148;2023-04-07T06:00:54;14.63;;;10.25;;
76978;SDS011;65911;47.502;19.148;2023-04-07T06:03:56;12.93;;;9.68;;
76978;SDS011;65911;47.502;19.148;2023-04-07T06:07:01;12.68;;;9.20;;
76978;SDS011;65911;47.502;19.148;2023-04-07T06:10:03;13.50;;;9.20;;
76978;SDS011;65911;47.502;19.148;2023-04-07T06:13:06;13.95;;;10.27;;
76978;SDS011;65911;47.502;19.148;2023-04-07T06:16:09;13.82;;;10.20;;
76978;SDS011;65911;47.502;19.148;2023-04-07T06:19:11;13.10;;;9.53;;
76978;SDS011;65911;47.502;19.148;2023-04-07T06:22:14;14.07;;;9.52;;
76978;SDS011;65911;47.502;19.148;2023-04-07T06:25:16;15.88;;;10.02;;
76978;SDS011;65911;47.502;19.148;2023-04-07T06:28:18;13.95;;;9.70;;
76978;SDS011;65911;47.502;19.148;2023-04-07T06:31:22;13.82;;;9.80;;
76978;SDS011;65911;47.502;19.148;2023-04-07T06:34:26;15.35;;;10.57;;
76978;SDS011;65911;47.502;19.148;2023-04-07T06:37:28;13.88;;;9.85;;
76978;SDS011;65911;47.502;19.148;2023-04-07T06:40:31;15.93;;;10.13;;
76978;SDS011;65911;47.502;19.148;2023-04-07T06:43:33;15.70;;;10.30;;
76978;SDS011;65911;47.502;19.148;2023-04-07T06:46:37;14.90;;;10.98;;
76978;SDS011;65911;47.502;19.148;2023-04-07T06:49:40;13.50;;;10.07;;
76978;SDS011;65911;47.502;19.148;2023-04-07T06:52:42;12.85;;;9.68;;
76978;SDS011;65911;47.502;19.148;2023-04-07T06:55:44;14.20;;;10.18;;
76978;SDS011;65911;47.502;19.148;2023-04-07T06:58:46;14.73;;;9.60;;
76978;SDS011;65911;47.502;19.148;2023-04-07T07:01:49;15.57;;;10.30;;
76978;SDS011;65911;47.502;19.148;2023-04-07T07:04:51;14.55;;;10.02;;
76978;SDS011;65911;47.502;19.148;2023-04-07T07:07:53;14.70;;;10.50;;
76978;SDS011;65911;47.502;19.148;2023-04-07T07:10:56;12.40;;;9.20;;
76978;SDS011;65911;47.502;19.148;2023-04-07T07:13:58;12.90;;;9.30;;
76978;SDS011;65911;47.502;19.148;2023-04-07T07:17:00;13.50;;;9.45;;
76978;SDS011;65911;47.502;19.148;2023-04-07T07:20:03;14.23;;;9.60;;
76978;SDS011;65911;47.502;19.148;2023-04-07T07:23:06;15.20;;;9.85;;
76978;SDS011;65911;47.502;19.148;2023-04-07T07:26:08;15.27;;;10.15;;
76978;SDS011;65911;47.502;19.148;2023-04-07T07:29:10;13.90;;;9.85;;
76978;SDS011;65911;47.502;19.148;2023-04-07T07:32:12;13.68;;;9.57;;
76978;SDS011;65911;47.502;19.148;2023-04-07T07:35:14;14.85;;;10.68;;
76978;SDS011;65911;47.502;19.148;2023-04-07T07:38:17;14.60;;;10.05;;
76978;SDS011;65911;47.502;19.148;2023-04-07T07:41:19;15.37;;;9.67;;
76978;SDS011;65911;47.502;19.148;2023-04-07T07:44:21;13.48;;;9.98;;
76978;SDS011;65911;47.502;19.148;2023-04-07T07:47:24;14.52;;;10.23;;
76978;SDS011;65911;47.502;19.148;2023-04-07T07:50:27;13.70;;;9.97;;
76978;SDS011;65911;47.502;19.148;2023-04-07T07:53:29;13.63;;;9.48;;
76978;SDS011;65911;47.502;19.148;2023-04-07T07:56:32;15.55;;;10.45;;
76978;SDS011;65911;47.502;19.148;2023-04-07T07:59:34;14.55;;;10.25;;
76978;SDS011;65911;47.502;19.148;2023-04-07T08:02:36;14.55;;;10.90;;
76978;SDS011;65911;47.502;19.148;2023-04-07T08:05:39;17.52;;;11.27;;
76978;SDS011;65911;47.502;19.148;2023-04-07T08:08:43;16.92;;;11.00;;
76978;SDS011;65911;47.502;19.148;2023-04-07T08:11:45;15.07;;;10.87;;
76978;SDS011;65911;47.502;19.148;2023-04-07T08:14:49;16.13;;;11.55;;
76978;SDS011;65911;47.502;19.148;2023-04-07T08:17:51;17.80;;;11.60;;
76978;SDS011;65911;47.502;19.148;2023-04-07T08:20:56;15.50;;;11.07;;
76978;SDS011;65911;47.502;19.148;2023-04-07T08:23:58;17.20;;;11.63;;
76978;SDS011;65911;47.502;19.148;2023-04-07T08:27:01;16.45;;;11.77;;
76978;SDS011;65911;47.502;19.148;2023-04-07T08:30:04;16.23;;;11.60;;
76978;SDS011;65911;47.502;19.148;2023-04-07T08:33:07;17.63;;;11.65;;
76978;SDS011;65911;47.502;19.148;2023-04-07T08:36:10;15.43;;;11.38;;
76978;SDS011;65911;47.502;19.148;2023-04-07T08:39:12;16.35;;;12.27;;
76978;SDS011;65911;47.502;19.148;2023-04-07T08:42:15;19.70;;;12.00;;
76978;SDS011;65911;47.502;19.148;2023-04-07T08:45:18;16.92;;;11.70;;
76978;SDS011;65911;47.502;19.148;2023-04-07T08:48:22;18.15;;;12.30;;
76978;SDS011;65911;47.502;19.148;2023-04-07T08:51:30;16.87;;;11.70;;
76978;SDS011;65911;47.502;19.148;2023-04-07T08:54:33;18.30;;;12.40;;
76978;SDS011;65911;47.502;19.148;2023-04-07T08:57:35;17.83;;;13.32;;
76978;SDS011;65911;47.502;19.148;2023-04-07T09:00:47;17.58;;;12.73;;
76978;SDS011;65911;47.502;19.148;2023-04-07T09:03:50;17.45;;;12.50;;
76978;SDS011;65911;47.502;19.148;2023-04-07T09:06:55;17.58;;;12.35;;
76978;SDS011;65911;47.502;19.148;2023-04-07T09:09:58;18.20;;;13.20;;
76978;SDS011;65911;47.502;19.148;2023-04-07T09:13:00;17.70;;;12.50;;
76978;SDS011;65911;47.502;19.148;2023-04-07T09:16:02;17.17;;;12.20;;
76978;SDS011;65911;47.502;19.148;2023-04-07T09:19:04;22.58;;;12.93;;
76978;SDS011;65911;47.502;19.148;2023-04-07T09:22:08;18.97;;;12.83;;
76978;SDS011;65911;47.502;19.148;2023-04-07T09:25:17;15.63;;;11.77;;
76978;SDS011;65911;47.502;19.148;2023-04-07T09:28:37;20.33;;;13.65;;
76978;SDS011;65911;47.502;19.148;2023-04-07T09:31:51;19.13;;;13.48;;
76978;SDS011;65911;47.502;19.148;2023-04-07T09:34:59;19.48;;;13.68;;
76978;SDS011;65911;47.502;19.148;2023-04-07T09:38:05;20.52;;;13.57;;
76978;SDS011;65911;47.502;19.148;2023-04-07T09:41:10;19.58;;;13.18;;
76978;SDS011;65911;47.502;19.148;2023-04-07T09:44:18;17.87;;;12.80;;
76978;SDS011;65911;47.502;19.148;2023-04-07T09:47:25;19.13;;;13.32;;
76978;SDS011;65911;47.502;19.148;2023-04-07T09:50:30;19.63;;;12.77;;
76978;SDS011;65911;47.502;19.148;2023-04-07T09:53:40;19.17;;;12.93;;
76978;SDS011;65911;47.502;19.148;2023-04-07T09:56:48;18.08;;;12.85;;
76978;SDS011;65911;47.502;19.148;2023-04-07T09:59:51;19.13;;;12.95;;
76978;SDS011;65911;47.502;19.148;2023-04-07T10:02:54;19.77;;;13.25;;
76978;SDS011;65911;47.502;19.148;2023-04-07T10:05:58;18.50;;;13.38;;
76978;SDS011;65911;47.502;19.148;2023-04-07T10:09:01;16.85;;;12.88;;
76978;SDS011;65911;47.502;19.148;2023-04-07T10:12:03;18.25;;;12.35;;
76978;SDS011;65911;47.502;19.148;2023-04-07T10:15:07;17.90;;;12.80;;
76978;SDS011;65911;47.502;19.148;2023-04-07T10:18:09;17.00;;;12.07;;
76978;SDS011;65911;47.502;19.148;2023-04-07T10:21:12;18.13;;;12.50;;
76978;SDS011;65911;47.502;19.148;2023-04-07T10:27:33;20.17;;;12.43;;
76978;SDS011;65911;47.502;19.148;2023-04-07T10:30:37;17.48;;;12.68;;
76978;SDS011;65911;47.502;19.148;2023-04-07T10:33:43;19.52;;;13.25;;
76978;SDS011;65911;47.502;19.148;2023-04-07T10:37:10;18.08;;;12.63;;
76978;SDS011;65911;47.502;19.148;2023-04-07T10:43:38;20.02;;;13.80;;
76978;SDS011;65911;47.502;19.148;2023-04-07T10:53:27;16.48;;;12.05;;
76978;SDS011;65911;47.502;19.148;2023-04-07T10:57:03;19.30;;;12.50;;
76978;SDS011;65911;47.502;19.148;2023-04-07T11:03:12;18.42;;;12.38;;
76978;SDS011;65911;47.502;19.148;2023-04-07T11:06:15;15.27;;;11.57;;
76978;SDS011;65911;47.502;19.148;2023-04-07T11:09:18;16.33;;;11.50;;
76978;SDS011;65911;47.502;19.148;2023-04-07T11:12:21;17.45;;;11.98;;
76978;SDS011;65911;47.502;19.148;2023-04-07T11:15:24;15.68;;;11.43;;
76978;SDS011;65911;47.502;19.148;2023-04-07T11:18:26;17.50;;;12.47;;
76978;SDS011;65911;47.502;19.148;2023-04-07T11:21:29;17.23;;;12.40;;
76978;SDS011;65911;47.502;19.148;2023-04-07T11:24:31;15.55;;;11.25;;
76978;SDS011;65911;47.502;19.148;2023-04-07T11:27:34;18.67;;;13.10;;
76978;SDS011;65911;47.502;19.148;2023-04-07T11:30:37;17.23;;;11.77;;
76978;SDS011;65911;47.502;19.148;2023-04-07T11:33:40;16.10;;;11.00;;
76978;SDS011;65911;47.502;19.148;2023-04-07T11:36:44;17.75;;;11.80;;
76978;SDS011;65911;47.502;19.148;2023-04-07T11:39:56;17.92;;;13.05;;
76978;SDS011;65911;47.502;19.148;2023-04-07T11:42:59;15.30;;;11.50;;
76978;SDS011;65911;47.502;19.148;2023-04-07T11:46:06;18.40;;;12.43;;
76978;SDS011;65911;47.502;19.148;2023-04-07T11:49:12;16.37;;;12.07;;
76978;SDS011;65911;47.502;19.148;2023-04-07T11:52:16;16.65;;;11.40;;
76978;SDS011;65911;47.502;19.148;2023-04-07T11:55:19;17.50;;;11.88;;
76978;SDS011;65911;47.502;19.148;2023-04-07T11:58:23;16.47;;;11.47;;
76978;SDS011;65911;47.502;19.148;2023-04-07T12:01:37;15.32;;;11.68;;
76978;SDS011;65911;47.502;19.148;2023-04-07T12:04:54;16.50;;;11.60;;
76978;SDS011;65911;47.502;19.148;2023-04-07T12:07:58;17.77;;;12.30;;
76978;SDS011;65911;47.502;19.148;2023-04-07T12:11:03;15.25;;;11.10;;
76978;SDS011;65911;47.502;19.148;2023-04-07T12:14:06;15.55;;;11.77;;
76978;SDS011;65911;47.502;19.148;2023-04-07T12:17:22;17.00;;;12.65;;
76978;SDS011;65911;47.502;19.148;2023-04-07T12:20:25;14.47;;;11.33;;
76978;SDS011;65911;47.502;19.148;2023-04-07T12:23:28;14.63;;;11.40;;
76978;SDS011;65911;47.502;19.148;2023-04-07T12:26:30;14.73;;;10.82;;
76978;SDS011;65911;47.502;19.148;2023-04-07T12:29:33;16.17;;;11.37;;
76978;SDS011;65911;47.502;19.148;2023-04-07T12:32:35;14.82;;;11.25;;
76978;SDS011;65911;47.502;19.148;2023-04-07T12:35:38;14.98;;;11.02;;
76978;SDS011;65911;47.502;19.148;2023-04-07T12:38:41;14.48;;;11.30;;
76978;SDS011;65911;47.502;19.148;2023-04-07T12:41:43;14.98;;;11.13;;
76978;SDS011;65911;47.502;19.148;2023-04-07T12:44:46;15.95;;;11.55;;
76978;SDS011;65911;47.502;19.148;2023-04-07T12:47:49;16.23;;;12.05;;
76978;SDS011;65911;47.502;19.148;2023-04-07T12:50:52;15.53;;;11.53;;
76978;SDS011;65911;47.502;19.148;2023-04-07T12:53:55;20.40;;;11.55;;
76978;SDS011;65911;47.502;19.148;2023-04-07T12:56:57;16.00;;;11.00;;
76978;SDS011;65911;47.502;19.148;2023-04-07T13:00:00;16.53;;;11.80;;
76978;SDS011;65911;47.502;19.148;2023-04-07T13:03:02;15.80;;;11.13;;
76978;SDS011;65911;47.502;19.148;2023-04-07T13:06:05;14.88;;;10.93;;
76978;SDS011;65911;47.502;19.148;2023-04-07T13:09:07;15.63;;;12.00;;
76978;SDS011;65911;47.502;19.148;2023-04-07T13:12:09;14.95;;;10.75;;
76978;SDS011;65911;47.502;19.148;2023-04-07T13:15:12;15.90;;;11.63;;
76978;SDS011;65911;47.502;19.148;2023-04-07T13:18:14;14.23;;;10.85;;
76978;SDS011;65911;47.502;19.148;2023-04-07T13:21:17;14.60;;;11.47;;
76978;SDS011;65911;47.502;19.148;2023-04-07T13:24:40;17.17;;;11.48;;
76978;SDS011;65911;47.502;19.148;2023-04-07T13:27:42;16.33;;;11.27;;
76978;SDS011;65911;47.502;19.148;2023-04-07T13:30:45;17.03;;;11.63;;
76978;SDS011;65911;47.502;19.148;2023-04-07T13:33:48;16.27;;;11.43;;
76978;SDS011;65911;47.502;19.148;2023-04-07T13:36:50;16.98;;;12.07;;
76978;SDS011;65911;47.502;19.148;2023-04-07T13:39:52;15.85;;;11.50;;
76978;SDS011;65911;47.502;19.148;2023-04-07T13:42:55;15.80;;;11.65;;
76978;SDS011;65911;47.502;19.148;2023-04-07T13:46:01;16.65;;;12.15;;
76978;SDS011;65911;47.502;19.148;2023-04-07T13:49:03;16.13;;;11.32;;
76978;SDS011;65911;47.502;19.148;2023-04-07T13:52:05;16.23;;;11.70;;
76978;SDS011;65911;47.502;19.148;2023-04-07T13:55:08;16.45;;;11.82;;
76978;SDS011;65911;47.502;19.148;2023-04-07T13:58:10;15.88;;;11.57;;
76978;SDS011;65911;47.502;19.148;2023-04-07T14:01:12;17.07;;;12.70;;
76978;SDS011;65911;47.502;19.148;2023-04-07T14:04:15;16.52;;;11.55;;
76978;SDS011;65911;47.502;19.148;2023-04-07T14:07:17;17.40;;;11.63;;
76978;SDS011;65911;47.502;19.148;2023-04-07T14:10:20;16.13;;;11.88;;
76978;SDS011;65911;47.502;19.148;2023-04-07T14:13:22;17.05;;;11.48;;
76978;SDS011;65911;47.502;19.148;2023-04-07T14:16:24;16.23;;;11.10;;
76978;SDS011;65911;47.502;19.148;2023-04-07T14:19:27;16.90;;;11.88;;
76978;SDS011;65911;47.502;19.148;2023-04-07T14:22:29;17.10;;;11.67;;
76978;SDS011;65911;47.502;19.148;2023-04-07T14:25:31;18.13;;;12.32;;
76978;SDS011;65911;47.502;19.148;2023-04-07T14:28:33;16.98;;;11.38;;
76978;SDS011;65911;47.502;19.148;2023-04-07T14:31:36;16.47;;;11.40;;
76978;SDS011;65911;47.502;19.148;2023-04-07T14:34:38;15.00;;;10.63;;
76978;SDS011;65911;47.502;19.148;2023-04-07T14:37:41;16.23;;;11.93;;
76978;SDS011;65911;47.502;19.148;2023-04-07T14:40:43;17.98;;;11.85;;
76978;SDS011;65911;47.502;19.148;2023-04-07T14:43:46;17.33;;;12.02;;
76978;SDS011;65911;47.502;19.148;2023-04-07T14:46:54;16.42;;;11.90;;
76978;SDS011;65911;47.502;19.148;2023-04-07T14:49:57;17.92;;;12.18;;
76978;SDS011;65911;47.502;19.148;2023-04-07T14:52:59;17.30;;;12.00;;
76978;SDS011;65911;47.502;19.148;2023-04-07T14:56:05;16.15;;;11.13;;
76978;SDS011;65911;47.502;19.148;2023-04-07T14:59:07;16.02;;;11.02;;
76978;SDS011;65911;47.502;19.148;2023-04-07T15:02:09;17.10;;;11.70;;
76978;SDS011;65911;47.502;19.148;2023-04-07T15:05:12;16.60;;;11.80;;
76978;SDS011;65911;47.502;19.148;2023-04-07T15:08:14;17.00;;;11.95;;
76978;SDS011;65911;47.502;19.148;2023-04-07T15:11:16;14.60;;;10.77;;
76978;SDS011;65911;47.502;19.148;2023-04-07T15:14:19;16.00;;;11.48;;
76978;SDS011;65911;47.502;19.148;2023-04-07T15:17:21;16.85;;;11.85;;
76978;SDS011;65911;47.502;19.148;2023-04-07T15:20:37;15.00;;;11.70;;
76978;SDS011;65911;47.502;19.148;2023-04-07T15:23:39;17.03;;;11.63;;
76978;SDS011;65911;47.502;19.148;2023-04-07T15:26:42;17.60;;;12.63;;
76978;SDS011;65911;47.502;19.148;2023-04-07T15:29:45;16.85;;;12.18;;
76978;SDS011;65911;47.502;19.148;2023-04-07T15:32:57;17.83;;;12.13;;
76978;SDS011;65911;47.502;19.148;2023-04-07T15:36:01;16.10;;;11.50;;
76978;SDS011;65911;47.502;19.148;2023-04-07T15:39:04;17.40;;;12.18;;
76978;SDS011;65911;47.502;19.148;2023-04-07T15:42:07;17.75;;;12.02;;
76978;SDS011;65911;47.502;19.148;2023-04-07T15:45:13;17.65;;;12.05;;
76978;SDS011;65911;47.502;19.148;2023-04-07T15:48:15;16.42;;;11.70;;
76978;SDS011;65911;47.502;19.148;2023-04-07T15:51:18;18.50;;;12.02;;
76978;SDS011;65911;47.502;19.148;2023-04-07T15:54:20;17.97;;;11.87;;
76978;SDS011;65911;47.502;19.148;2023-04-07T15:57:22;18.77;;;12.88;;
76978;SDS011;65911;47.502;19.148;2023-04-07T16:00:25;19.63;;;12.73;;
76978;SDS011;65911;47.502;19.148;2023-04-07T16:03:28;16.60;;;11.93;;
76978;SDS011;65911;47.502;19.148;2023-04-07T16:06:30;18.00;;;12.57;;
76978;SDS011;65911;47.502;19.148;2023-04-07T16:09:32;18.17;;;12.38;;
76978;SDS011;65911;47.502;19.148;2023-04-07T16:12:35;18.73;;;12.70;;
76978;SDS011;65911;47.502;19.148;2023-04-07T16:15:38;19.73;;;13.23;;
76978;SDS011;65911;47.502;19.148;2023-04-07T16:18:42;21.67;;;12.90;;
76978;SDS011;65911;47.502;19.148;2023-04-07T16:21:44;18.52;;;12.93;;
76978;SDS011;65911;47.502;19.148;2023-04-07T16:24:47;19.93;;;12.93;;
76978;SDS011;65911;47.502;19.148;2023-04-07T16:27:50;18.55;;;13.10;;
76978;SDS011;65911;47.502;19.148;2023-04-07T16:30:53;22.52;;;13.18;;
76978;SDS011;65911;47.502;19.148;2023-04-07T16:33:58;21.43;;;13.00;;
76978;SDS011;65911;47.502;19.148;2023-04-07T16:37:00;20.17;;;13.45;;
76978;SDS011;65911;47.502;19.148;2023-04-07T16:40:03;20.20;;;13.52;;
76978;SDS011;65911;47.502;19.148;2023-04-07T16:43:05;20.52;;;12.77;;
76978;SDS011;65911;47.502;19.148;2023-04-07T16:46:09;21.35;;;13.77;;
76978;SDS011;65911;47.502;19.148;2023-04-07T16:49:12;22.17;;;13.60;;
76978;SDS011;65911;47.502;19.148;2023-04-07T16:52:14;19.73;;;12.45;;
76978;SDS011;65911;47.502;19.148;2023-04-07T16:55:16;18.17;;;12.70;;
76978;SDS011;65911;47.502;19.148;2023-04-07T16:58:18;18.85;;;12.95;;
76978;SDS011;65911;47.502;19.148;2023-04-07T17:01:21;17.40;;;12.07;;
76978;SDS011;65911;47.502;19.148;2023-04-07T17:04:23;19.47;;;12.60;;
76978;SDS011;65911;47.502;19.148;2023-04-07T17:07:26;19.75;;;12.48;;
76978;SDS011;65911;47.502;19.148;2023-04-07T17:10:28;19.05;;;12.95;;
76978;SDS011;65911;47.502;19.148;2023-04-07T17:13:30;19.98;;;12.93;;
76978;SDS011;65911;47.502;19.148;2023-04-07T17:16:32;19.85;;;12.63;;
76978;SDS011;65911;47.502;19.148;2023-04-07T17:19:35;19.70;;;12.35;;
76978;SDS011;65911;47.502;19.148;2023-04-07T17:22:37;19.50;;;12.85;;
76978;SDS011;65911;47.502;19.148;2023-04-07T17:25:39;19.73;;;12.13;;
76978;SDS011;65911;47.502;19.148;2023-04-07T17:28:42;19.88;;;12.75;;
76978;SDS011;65911;47.502;19.148;2023-04-07T17:31:47;16.85;;;11.77;;
76978;SDS011;65911;47.502;19.148;2023-04-07T17:34:50;17.63;;;11.97;;
76978;SDS011;65911;47.502;19.148;2023-04-07T17:37:52;18.48;;;12.00;;
76978;SDS011;65911;47.502;19.148;2023-04-07T17:40:57;20.75;;;12.02;;
76978;SDS011;65911;47.502;19.148;2023-04-07T17:44:00;19.55;;;12.50;;
76978;SDS011;65911;47.502;19.148;2023-04-07T17:47:02;16.20;;;11.27;;
76978;SDS011;65911;47.502;19.148;2023-04-07T17:50:05;18.17;;;12.30;;
76978;SDS011;65911;47.502;19.148;2023-04-07T17:53:07;19.42;;;12.05;;
76978;SDS011;65911;47.502;19.148;2023-04-07T17:56:10;16.40;;;11.03;;
76978;SDS011;65911;47.502;19.148;2023-04-07T17:59:13;18.23;;;11.73;;
76978;SDS011;65911;47.502;19.148;2023-04-07T18:02:15;18.75;;;11.75;;
76978;SDS011;65911;47.502;19.148;2023-04-07T18:05:18;18.50;;;11.20;;
76978;SDS011;65911;47.502;19.148;2023-04-07T18:08:21;17.83;;;11.70;;
76978;SDS011;65911;47.502;19.148;2023-04-07T18:11:23;17.90;;;12.27;;
76978;SDS011;65911;47.502;19.148;2023-04-07T18:14:25;17.67;;;12.13;;